createdAt,value
2022-11-29T00:01:12.052Z,77.32
2022-11-29T00:03:38.921Z,77.30
2022-11-29T00:06:08.426Z,77.43
2022-11-29T00:08:36.403Z,76.50
2022-11-29T00:11:08.152Z,78.00
2022-11-29T00:13:35.144Z,77.54
2022-11-29T00:16:05.812Z,77.52
2022-11-29T00:18:32.745Z,76.89
2022-11-29T00:20:59.785Z,76.99
2022-11-29T00:23:26.722Z,77.21
2022-11-29T00:25:53.682Z,77.86
2022-11-29T00:28:20.487Z,77.92
2022-11-29T00:30:47.477Z,77.39
2022-11-29T00:33:14.432Z,76.55
2022-11-29T00:35:41.357Z,77.01
2022-11-29T00:38:08.237Z,74.76
2022-11-29T00:40:35.159Z,78.84
2022-11-29T00:43:02.096Z,77.29
2022-11-29T00:45:28.933Z,76.26
2022-11-29T00:47:55.841Z,74.03
2022-11-29T00:50:22.693Z,73.80
2022-11-29T00:52:49.843Z,73.21
2022-11-29T00:55:16.720Z,72.78
2022-11-29T00:57:43.618Z,73.26
2022-11-29T01:00:10.960Z,71.60
2022-11-29T01:02:38.021Z,70.88
2022-11-29T01:05:05.141Z,70.76
2022-11-29T01:07:32.033Z,70.65
2022-11-29T01:09:58.856Z,70.93
2022-11-29T01:12:25.900Z,71.64
2022-11-29T01:14:52.738Z,70.87
2022-11-29T01:17:19.591Z,72.15
2022-11-29T01:19:50.623Z,72.86
2022-11-29T01:22:18.619Z,71.16
2022-11-29T01:24:45.692Z,72.16
2022-11-29T01:27:12.799Z,71.57
2022-11-29T01:29:39.639Z,70.90
2022-11-29T01:32:06.451Z,71.91
2022-11-29T01:34:33.404Z,71.69
2022-11-29T01:37:00.201Z,71.26
2022-11-29T01:39:27.025Z,70.21
2022-11-29T01:41:53.856Z,70.69
2022-11-29T01:44:20.928Z,70.76
2022-11-29T01:46:48.709Z,69.05
2022-11-29T01:49:21.370Z,68.60
2022-11-29T01:51:55.779Z,69.23
2022-11-29T01:54:22.991Z,69.52
2022-11-29T01:56:51.997Z,69.84
2022-11-29T01:59:25.153Z,70.84
2022-11-29T02:01:52.901Z,70.15
2022-11-29T02:04:20.342Z,70.74
2022-11-29T02:06:47.322Z,70.04
2022-11-29T02:09:23.324Z,67.66
2022-11-29T02:12:28.677Z,68.68
2022-11-29T02:15:32.792Z,70.75
2022-11-29T02:18:14.796Z,69.98
2022-11-29T02:20:41.603Z,70.19
2022-11-29T02:23:20.652Z,68.88
2022-11-29T02:26:09.274Z,69.02
2022-11-29T02:29:08.083Z,70.06
2022-11-29T02:31:57.870Z,69.61
2022-11-29T02:34:41.814Z,71.22
2022-11-29T02:37:42.884Z,70.93
2022-11-29T02:40:47.335Z,72.50
2022-11-29T02:43:19.536Z,71.64
2022-11-29T02:46:07.972Z,70.90
2022-11-29T02:48:46.698Z,70.23
2022-11-29T02:51:18.757Z,70.72
2022-11-29T02:53:53.659Z,69.78
2022-11-29T02:56:52.243Z,72.34
2022-11-29T02:59:41.753Z,73.30
2022-11-29T03:02:20.487Z,72.43
2022-11-29T03:04:53.204Z,71.17
2022-11-29T03:07:35.840Z,71.66
2022-11-29T03:10:09.459Z,71.67
2022-11-29T03:12:47.632Z,71.64
2022-11-29T03:15:21.688Z,70.93
2022-11-29T03:18:00.597Z,71.29
2022-11-29T03:21:03.853Z,71.82
2022-11-29T03:23:39.540Z,70.03
2022-11-29T03:26:12.072Z,70.30
2022-11-29T03:28:46.189Z,70.75
2022-11-29T03:31:27.297Z,71.66
2022-11-29T03:34:31.931Z,70.24
2022-11-29T03:37:08.537Z,69.93
2022-11-29T03:39:45.496Z,70.48
2022-11-29T03:42:24.544Z,70.40
2022-11-29T03:44:56.756Z,70.52
2022-11-29T03:47:30.345Z,70.74
2022-11-29T03:50:23.262Z,69.47
2022-11-29T03:52:54.707Z,70.71
2022-11-29T03:55:21.526Z,70.88
2022-11-29T03:58:10.374Z,70.36
2022-11-29T04:00:49.219Z,70.53
2022-11-29T04:03:25.672Z,69.56
2022-11-29T04:06:04.713Z,69.97
2022-11-29T04:08:57.735Z,70.21
2022-11-29T04:11:30.469Z,69.87
2022-11-29T04:14:44.130Z,69.98
2022-11-29T04:17:30.918Z,70.17
2022-11-29T04:20:15.121Z,70.60
2022-11-29T04:23:00.314Z,69.30
2022-11-29T04:26:01.421Z,69.65
2022-11-29T04:28:50.128Z,69.03
2022-11-29T04:31:37.285Z,68.65
2022-11-29T04:34:37.481Z,69.34
2022-11-29T04:37:31.242Z,69.00
2022-11-29T04:40:04.237Z,69.67
2022-11-29T04:43:12.359Z,69.94
2022-11-29T04:46:05.478Z,70.00
2022-11-29T04:48:55.532Z,70.40
2022-11-29T04:51:31.485Z,69.68
2022-11-29T04:54:26.442Z,70.22
2022-11-29T04:57:06.236Z,69.35
2022-11-29T04:59:42.783Z,70.30
2022-11-29T05:02:49.061Z,71.73
2022-11-29T05:05:19.076Z,70.38
2022-11-29T05:07:48.610Z,71.67
2022-11-29T05:10:43.126Z,69.83
2022-11-29T05:13:19.021Z,70.64
2022-11-29T05:16:02.730Z,71.85
2022-11-29T05:18:57.165Z,69.62
2022-11-29T05:21:44.057Z,69.27
2022-11-29T05:24:11.106Z,69.98
2022-11-29T05:27:01.715Z,69.13
2022-11-29T05:29:42.170Z,68.98
2022-11-29T05:32:24.756Z,70.00
2022-11-29T05:35:00.951Z,70.75
2022-11-29T05:37:48.004Z,71.38
2022-11-29T05:40:44.374Z,73.14
2022-11-29T05:43:11.204Z,71.87
2022-11-29T05:46:22.730Z,71.97
2022-11-29T05:49:01.587Z,74.46
2022-11-29T05:51:42.193Z,75.68
2022-11-29T05:54:30.450Z,71.56
2022-11-29T05:57:29.356Z,73.28
2022-11-29T05:59:59.218Z,74.53
2022-11-29T06:02:44.444Z,75.03
2022-11-29T06:05:49.887Z,71.61
2022-11-29T06:08:25.544Z,72.63
2022-11-29T06:11:01.735Z,73.58
2022-11-29T06:13:47.609Z,74.58
2022-11-29T06:16:42.495Z,73.75
2022-11-29T06:19:47.197Z,75.17
2022-11-29T06:22:32.205Z,75.04
2022-11-29T06:25:16.798Z,74.64
2022-11-29T06:28:12.060Z,76.14
2022-11-29T06:31:05.527Z,74.99
2022-11-29T06:33:50.987Z,75.94
2022-11-29T06:36:28.242Z,76.54
2022-11-29T06:38:55.709Z,76.75
2022-11-29T06:41:24.397Z,77.51
2022-11-29T06:43:51.660Z,77.34
2022-11-29T06:46:21.165Z,75.07
2022-11-29T06:49:02.246Z,76.35
2022-11-29T06:51:37.077Z,76.27
2022-11-29T06:54:03.968Z,76.31
2022-11-29T06:56:45.956Z,76.90
2022-11-29T06:59:12.726Z,77.83
2022-11-29T07:01:54.109Z,77.19
2022-11-29T07:04:45.493Z,77.60
2022-11-29T07:07:18.640Z,77.28
2022-11-29T07:09:47.666Z,75.67
2022-11-29T07:12:15.448Z,76.74
2022-11-29T07:14:42.853Z,76.78
2022-11-29T07:17:12.732Z,76.35
2022-11-29T07:19:42.599Z,76.56
2022-11-29T07:22:47.118Z,75.21
2022-11-29T07:25:41.648Z,76.34
2022-11-29T07:28:30.204Z,75.90
2022-11-29T07:31:21.356Z,73.83
2022-11-29T07:34:20.729Z,73.46
2022-11-29T07:37:10.941Z,75.10
2022-11-29T07:39:52.930Z,74.91
2022-11-29T07:42:38.340Z,76.06
2022-11-29T07:45:18.692Z,75.70
2022-11-29T07:47:46.406Z,74.05
2022-11-29T07:50:13.629Z,74.86
2022-11-29T07:52:40.579Z,75.33
2022-11-29T07:55:17.086Z,74.09
2022-11-29T07:57:45.485Z,75.98
2022-11-29T08:00:13.277Z,75.04
2022-11-29T08:02:40.562Z,74.48
2022-11-29T08:05:08.087Z,75.38
2022-11-29T08:07:36.780Z,75.17
2022-11-29T08:10:11.824Z,75.08
2022-11-29T08:12:44.481Z,75.68
2022-11-29T08:15:11.797Z,76.12
2022-11-29T08:17:39.358Z,76.54
2022-11-29T08:20:07.329Z,75.78
2022-11-29T08:22:34.279Z,76.17
2022-11-29T08:25:01.442Z,75.64
2022-11-29T08:27:28.843Z,74.50
2022-11-29T08:29:55.695Z,75.40
2022-11-29T08:32:22.560Z,75.37
2022-11-29T08:34:49.425Z,76.32
2022-11-29T08:37:16.336Z,76.48
2022-11-29T08:39:43.378Z,75.88
2022-11-29T08:42:10.319Z,77.36
2022-11-29T08:44:37.364Z,76.93
2022-11-29T08:47:22.899Z,77.52
2022-11-29T08:50:02.053Z,77.40
2022-11-29T08:52:54.568Z,76.85
2022-11-29T08:55:24.203Z,77.37
2022-11-29T08:57:52.139Z,75.88
2022-11-29T09:00:21.343Z,76.82
2022-11-29T09:02:48.724Z,76.41
2022-11-29T09:05:15.958Z,77.43
2022-11-29T09:07:43.482Z,77.40
2022-11-29T09:10:11.397Z,77.17
2022-11-29T09:12:40.290Z,76.91
2022-11-29T09:15:10.121Z,76.10
2022-11-29T09:17:37.737Z,76.30
2022-11-29T09:20:06.060Z,77.05
2022-11-29T09:22:32.941Z,77.13
2022-11-29T09:24:59.819Z,77.27
2022-11-29T09:27:26.683Z,76.10
2022-11-29T09:29:53.531Z,77.46
2022-11-29T09:32:20.382Z,79.67
2022-11-29T09:34:47.645Z,79.01
2022-11-29T09:37:14.691Z,78.09
2022-11-29T09:39:41.979Z,78.46
2022-11-29T09:42:47.050Z,78.75
2022-11-29T09:45:27.882Z,78.94
2022-11-29T09:48:00.764Z,78.07
2022-11-29T09:50:36.581Z,78.03
2022-11-29T09:53:43.673Z,78.84
2022-11-29T09:56:23.555Z,78.26
2022-11-29T09:59:00.677Z,78.79
2022-11-29T10:01:34.421Z,78.48
2022-11-29T10:04:04.801Z,78.67
2022-11-29T10:06:36.792Z,78.21
2022-11-29T10:09:18.988Z,78.09
2022-11-29T10:12:14.307Z,76.77
2022-11-29T10:14:58.168Z,77.39
2022-11-29T10:17:29.597Z,77.62
2022-11-29T10:20:04.034Z,77.69
2022-11-29T10:22:40.974Z,78.21
2022-11-29T10:25:12.297Z,77.63
2022-11-29T10:27:40.551Z,76.58
2022-11-29T10:30:14.868Z,75.95
2022-11-29T10:32:44.368Z,75.87
2022-11-29T10:35:17.368Z,76.73
2022-11-29T10:38:01.571Z,77.23
2022-11-29T10:40:35.167Z,76.15
2022-11-29T10:43:02.825Z,76.18
2022-11-29T10:45:35.183Z,75.59
2022-11-29T10:48:09.870Z,77.05
2022-11-29T10:50:37.898Z,76.07
2022-11-29T10:53:06.338Z,76.65
2022-11-29T10:56:06.368Z,76.34
2022-11-29T10:58:34.171Z,77.20
2022-11-29T11:01:07.048Z,76.85
2022-11-29T11:03:53.454Z,76.26
2022-11-29T11:06:25.217Z,77.73
2022-11-29T11:08:57.717Z,76.60
2022-11-29T11:11:33.941Z,76.63
2022-11-29T11:14:04.893Z,76.00
2022-11-29T11:16:37.027Z,76.24
2022-11-29T11:19:32.303Z,77.08
2022-11-29T11:22:04.396Z,76.50
2022-11-29T11:24:40.072Z,77.01
2022-11-29T11:27:07.186Z,75.89
2022-11-29T11:29:44.640Z,76.03
2022-11-29T11:32:19.677Z,75.97
2022-11-29T11:34:54.910Z,77.73
2022-11-29T11:37:23.466Z,77.00
2022-11-29T11:39:53.909Z,78.51
2022-11-29T11:42:39.425Z,77.44
2022-11-29T11:45:37.189Z,78.33
2022-11-29T11:48:13.410Z,76.76
2022-11-29T11:50:45.647Z,76.11
2022-11-29T11:53:44.328Z,76.85
2022-11-29T11:56:13.722Z,76.70
2022-11-29T11:58:43.312Z,77.13
2022-11-29T12:01:13.115Z,76.43
2022-11-29T12:03:48.304Z,77.44
2022-11-29T12:06:41.493Z,78.17
2022-11-29T12:09:08.565Z,77.73
2022-11-29T12:11:50.656Z,77.23
2022-11-29T12:14:29.148Z,77.36
2022-11-29T12:17:05.315Z,77.92
2022-11-29T12:19:42.053Z,78.88
2022-11-29T12:22:19.083Z,77.89
2022-11-29T12:24:57.387Z,78.50
2022-11-29T12:27:24.212Z,78.06
2022-11-29T12:29:51.193Z,78.22
2022-11-29T12:32:32.720Z,78.32
2022-11-29T12:35:47.809Z,79.05
2022-11-29T12:38:52.856Z,78.28
2022-11-29T12:41:34.794Z,77.40
2022-11-29T12:44:39.929Z,77.69
2022-11-29T12:47:34.796Z,78.82
2022-11-29T12:50:14.602Z,78.12
2022-11-29T12:52:41.411Z,77.75
2022-11-29T12:55:29.653Z,79.03
2022-11-29T12:58:12.174Z,76.24
2022-11-29T13:00:55.805Z,77.84
2022-11-29T13:03:49.634Z,76.83
2022-11-29T13:06:33.224Z,75.83
2022-11-29T13:09:08.938Z,74.74
2022-11-29T13:11:40.516Z,75.18
2022-11-29T13:14:43.349Z,75.35
2022-11-29T13:17:26.263Z,75.71
2022-11-29T13:19:56.921Z,76.60
2022-11-29T13:22:43.764Z,78.10
2022-11-29T13:25:27.191Z,77.98
2022-11-29T13:28:01.897Z,74.62
2022-11-29T13:30:29.234Z,76.09
2022-11-29T13:33:03.165Z,76.06
2022-11-29T13:35:43.215Z,78.33
2022-11-29T13:38:43.826Z,78.57
2022-11-29T13:41:37.784Z,77.99
2022-11-29T13:44:32.334Z,76.79
2022-11-29T13:47:10.084Z,77.88
2022-11-29T13:49:53.026Z,77.48
2022-11-29T13:52:35.162Z,76.88
2022-11-29T13:55:23.083Z,76.95
2022-11-29T14:00:42.552Z,77.45
2022-11-29T14:03:19.289Z,78.82
2022-11-29T14:05:52.273Z,77.94
2022-11-29T14:09:17.729Z,78.88
2022-11-29T14:12:00.300Z,78.70
2022-11-29T14:14:34.137Z,79.62
2022-11-29T14:17:06.968Z,80.42
2022-11-29T14:19:36.445Z,80.06
2022-11-29T14:22:03.324Z,79.89
2022-11-29T14:24:33.555Z,79.68
2022-11-29T14:27:06.150Z,80.40
2022-11-29T14:29:52.851Z,80.27
2022-11-29T14:32:31.833Z,79.97
2022-11-29T14:35:10.856Z,80.99
2022-11-29T14:37:58.180Z,80.16
2022-11-29T14:40:36.927Z,80.35
2022-11-29T14:43:16.516Z,80.15
2022-11-29T14:45:43.661Z,81.25
2022-11-29T14:48:31.962Z,81.12
2022-11-29T14:51:14.614Z,81.23
2022-11-29T14:53:43.583Z,81.26
2022-11-29T14:56:29.576Z,81.52
2022-11-29T14:59:33.710Z,81.59
2022-11-29T15:02:06.591Z,80.33
2022-11-29T15:04:35.650Z,82.11
2022-11-29T15:07:04.588Z,81.53
2022-11-29T15:09:33.540Z,82.89
2022-11-29T15:12:10.915Z,83.40
2022-11-29T15:14:40.481Z,83.50
2022-11-29T15:17:13.915Z,83.08
2022-11-29T15:20:25.605Z,82.59
2022-11-29T15:22:55.649Z,82.70
2022-11-29T15:25:26.450Z,82.93
2022-11-29T15:28:05.956Z,82.75
2022-11-29T15:30:39.247Z,82.87
2022-11-29T15:33:23.444Z,83.01
2022-11-29T15:36:04.225Z,81.46
2022-11-29T15:38:43.109Z,81.90
2022-11-29T15:41:22.341Z,82.42
2022-11-29T15:43:56.217Z,82.75
2022-11-29T15:46:28.688Z,81.78
2022-11-29T15:48:56.572Z,82.43
2022-11-29T15:51:31.234Z,83.25
2022-11-29T15:54:12.040Z,82.17
2022-11-29T15:56:53.762Z,82.29
2022-11-29T15:59:40.387Z,82.51
2022-11-29T16:02:32.596Z,82.78
2022-11-29T16:05:15.199Z,83.19
2022-11-29T16:07:44.169Z,82.39
2022-11-29T16:10:14.873Z,83.33
2022-11-29T16:12:55.325Z,82.21
2022-11-29T16:15:39.210Z,82.05
2022-11-29T16:18:14.914Z,82.95
2022-11-29T16:20:41.946Z,83.41
2022-11-29T16:23:11.613Z,82.55
2022-11-29T16:25:58.779Z,82.88
2022-11-29T16:28:30.133Z,82.09
2022-11-29T16:30:57.766Z,82.20
2022-11-29T16:33:25.087Z,81.88
2022-11-29T16:36:03.798Z,81.08
2022-11-29T16:38:30.821Z,82.39
2022-11-29T16:41:22.352Z,81.20
2022-11-29T16:43:56.232Z,81.71
2022-11-29T16:46:25.301Z,82.43
2022-11-29T16:48:54.143Z,81.39
2022-11-29T16:51:26.635Z,81.87
2022-11-29T16:53:55.857Z,82.49
2022-11-29T16:56:29.142Z,82.23
2022-11-29T16:59:20.845Z,82.30
2022-11-29T17:01:48.103Z,82.43
2022-11-29T17:04:23.747Z,81.94
2022-11-29T17:06:56.142Z,80.89
2022-11-29T17:09:26.801Z,82.31
2022-11-29T17:11:55.088Z,81.83
2022-11-29T17:14:22.347Z,83.52
2022-11-29T17:16:49.946Z,83.34
2022-11-29T17:19:17.759Z,82.89
2022-11-29T17:21:45.613Z,81.59
2022-11-29T17:24:15.769Z,81.61
2022-11-29T17:26:43.732Z,82.88
2022-11-29T17:29:12.097Z,82.23
2022-11-29T17:31:39.512Z,82.12
2022-11-29T17:34:06.614Z,81.31
2022-11-29T17:36:33.529Z,81.94
2022-11-29T17:39:01.539Z,83.27
2022-11-29T17:41:29.138Z,82.63
2022-11-29T17:43:57.030Z,82.99
2022-11-29T17:46:36.137Z,81.58
2022-11-29T17:49:06.419Z,82.25
2022-11-29T17:51:52.085Z,82.26
2022-11-29T17:54:19.471Z,81.41
2022-11-29T17:56:46.400Z,81.85
2022-11-29T17:59:13.195Z,81.79
2022-11-29T18:01:40.185Z,82.06
2022-11-29T18:04:08.464Z,82.14
2022-11-29T18:06:40.489Z,81.90
2022-11-29T18:09:09.340Z,81.09
2022-11-29T18:11:49.919Z,81.70
2022-11-29T18:14:23.712Z,81.02
2022-11-29T18:16:51.466Z,80.55
2022-11-29T18:19:20.970Z,81.12
2022-11-29T18:21:49.135Z,80.38
2022-11-29T18:24:15.973Z,80.60
2022-11-29T18:26:43.870Z,81.22
2022-11-29T18:29:11.252Z,81.09
2022-11-29T18:31:41.073Z,80.48
2022-11-29T18:34:10.467Z,81.67
2022-11-29T18:36:46.285Z,82.12
2022-11-29T18:39:18.131Z,81.74
2022-11-29T18:41:48.284Z,81.14
2022-11-29T18:44:17.562Z,82.03
2022-11-29T18:46:46.050Z,81.33
2022-11-29T18:49:15.194Z,81.47
2022-11-29T18:51:44.752Z,80.74
2022-11-29T18:54:12.357Z,80.59
2022-11-29T18:56:39.697Z,80.44
2022-11-29T18:59:10.526Z,80.94
2022-11-29T19:01:43.125Z,80.76
2022-11-29T19:04:13.118Z,81.09
2022-11-29T19:06:40.614Z,81.09
2022-11-29T19:09:11.575Z,81.05
2022-11-29T19:11:39.064Z,81.09
2022-11-29T19:14:11.828Z,81.07
2022-11-29T19:16:41.928Z,81.02
2022-11-29T19:19:08.926Z,80.68
2022-11-29T19:21:35.923Z,80.71
2022-11-29T19:24:05.677Z,81.48
2022-11-29T19:26:34.851Z,79.94
2022-11-29T19:29:02.154Z,79.76
2022-11-29T19:31:29.347Z,79.22
2022-11-29T19:33:57.570Z,80.34
2022-11-29T19:36:25.784Z,80.22
2022-11-29T19:38:54.312Z,79.97
2022-11-29T19:41:27.194Z,79.91
2022-11-29T19:43:57.083Z,80.39
2022-11-29T19:46:29.366Z,81.26
2022-11-29T19:48:57.817Z,80.75
2022-11-29T19:51:26.415Z,80.23
2022-11-29T19:54:01.110Z,79.94
2022-11-29T19:56:29.316Z,80.90
2022-11-29T19:58:56.392Z,79.85
2022-11-29T20:01:28.030Z,79.12
2022-11-29T20:03:59.044Z,80.04
2022-11-29T20:06:30.380Z,81.19
2022-11-29T20:08:58.003Z,81.13
2022-11-29T20:11:25.991Z,80.29
2022-11-29T20:13:58.443Z,79.13
2022-11-29T20:16:27.656Z,80.13
2022-11-29T20:18:54.901Z,80.10
2022-11-29T20:21:25.252Z,79.86
2022-11-29T20:23:57.467Z,80.28
2022-11-29T20:26:25.301Z,81.52
2022-11-29T20:28:52.416Z,81.62
2022-11-29T20:31:22.633Z,81.95
2022-11-29T20:33:51.687Z,80.93
2022-11-29T20:36:32.961Z,81.17
2022-11-29T20:39:25.429Z,80.96
2022-11-29T20:42:12.097Z,79.78
2022-11-29T20:44:44.426Z,79.05
2022-11-29T20:47:17.976Z,79.25
2022-11-29T20:49:45.423Z,78.52
2022-11-29T20:52:43.080Z,76.61
2022-11-29T20:55:10.156Z,77.51
2022-11-29T20:57:39.987Z,76.99
2022-11-29T21:00:09.398Z,76.80
2022-11-29T21:02:36.269Z,77.77
2022-11-29T21:05:04.025Z,77.29
2022-11-29T21:07:31.015Z,78.20
2022-11-29T21:10:01.180Z,77.78
2022-11-29T21:12:30.091Z,78.41
2022-11-29T21:14:57.857Z,78.07
2022-11-29T21:17:30.279Z,77.62
2022-11-29T21:20:03.159Z,77.07
2022-11-29T21:22:46.908Z,77.04
2022-11-29T21:25:23.377Z,76.13
2022-11-29T21:27:51.839Z,77.06
2022-11-29T21:30:24.093Z,77.05
2022-11-29T21:32:51.577Z,77.69
2022-11-29T21:35:18.507Z,77.14
2022-11-29T21:37:46.291Z,77.14
2022-11-29T21:40:15.856Z,76.40
2022-11-29T21:42:42.840Z,76.57
2022-11-29T21:45:15.222Z,76.52
2022-11-29T21:47:44.200Z,75.51
2022-11-29T21:50:12.658Z,75.10
2022-11-29T21:52:40.508Z,75.69
2022-11-29T21:55:07.762Z,73.94
2022-11-29T21:57:34.591Z,74.70
2022-11-29T22:00:01.452Z,74.35
2022-11-29T22:02:31.343Z,74.57
2022-11-29T22:04:58.413Z,74.12
2022-11-29T22:07:25.342Z,73.93
2022-11-29T22:09:52.568Z,73.54
2022-11-29T22:12:33.846Z,74.80
2022-11-29T22:15:01.803Z,74.85
2022-11-29T22:17:28.661Z,74.05
2022-11-29T22:19:55.623Z,73.37
2022-11-29T22:22:22.545Z,74.45
2022-11-29T22:24:49.646Z,74.59
2022-11-29T22:27:18.509Z,74.73
2022-11-29T22:29:45.566Z,73.65
2022-11-29T22:32:13.811Z,73.06
2022-11-29T22:34:40.731Z,72.85
2022-11-29T22:37:07.656Z,73.01
2022-11-29T22:39:34.592Z,72.32
2022-11-29T22:42:01.348Z,72.25
2022-11-29T22:44:28.212Z,72.31
2022-11-29T22:46:55.129Z,71.97
2022-11-29T22:49:22.048Z,70.95
2022-11-29T22:51:49.229Z,70.97
2022-11-29T22:54:16.584Z,71.36
2022-11-29T22:56:44.796Z,70.29
2022-11-29T22:59:11.771Z,71.17
2022-11-29T23:01:40.474Z,70.16
2022-11-29T23:04:10.572Z,71.22
2022-11-29T23:06:40.471Z,70.95
2022-11-29T23:09:21.327Z,71.02
2022-11-29T23:11:53.640Z,71.49
2022-11-29T23:14:22.339Z,71.00
2022-11-29T23:16:49.656Z,71.07
2022-11-29T23:19:17.353Z,70.00
2022-11-29T23:21:45.950Z,69.81
2022-11-29T23:24:14.385Z,71.27
2022-11-29T23:26:44.765Z,71.82
2022-11-29T23:29:19.380Z,71.85
2022-11-29T23:31:48.629Z,71.10
2022-11-29T23:34:15.693Z,71.24
2022-11-29T23:36:43.350Z,71.28
2022-11-29T23:39:12.728Z,70.49
2022-11-29T23:41:39.531Z,71.08
2022-11-29T23:44:08.711Z,72.34
2022-11-29T23:46:35.997Z,72.57
2022-11-29T23:49:02.950Z,71.40
2022-11-29T23:51:29.892Z,71.71
2022-11-29T23:53:56.689Z,70.98
2022-11-29T23:56:23.715Z,70.75
2022-11-29T23:58:50.621Z,70.39
